Time;durP1;ratioP1;P1;durP2;ratioP2;P2;SDS_P1;SDS_P2;PMS_P1;PMS_P2;Temp;Humidity;BMP_temperature;BMP_pressure;BME280_temperature;BME280_humidity;BME280_pressure;Samples;Min_cycle;Max_cycle;Signal;HPM_P1;HPM_P2
2021/09/18 00:01:11;;;;;;;4.43;2.53;;;;;;;;;;5074754;28;20048;-61
2021/09/18 00:03:56;;;;;;;4.97;2.40;;;;;;;;;;5074640;28;20048;-61
2021/09/18 00:06:42;;;;;;;4.82;2.00;;;;;;;;;;5074423;28;20426;-61
2021/09/18 00:09:28;;;;;;;4.88;3.20;;;;;;;;;;5074651;28;20056;-61
2021/09/18 00:12:13;;;;;;;5.60;2.85;;;;;;;;;;5074472;28;20053;-61
2021/09/18 00:15:01;;;;;;;4.80;2.33;;;;;;;;;;5078932;28;20047;-61
2021/09/18 00:17:46;;;;;;;4.10;2.60;;;;;;;;;;5094785;28;20055;-61
2021/09/18 00:20:31;;;;;;;3.67;2.83;;;;;;;;;;5094585;28;20051;-62
2021/09/18 00:23:16;;;;;;;3.85;2.38;;;;;;;;;;5089727;28;20041;-61
2021/09/18 00:26:02;;;;;;;5.13;2.97;;;;;;;;;;5084495;28;20387;-61
2021/09/18 00:28:47;;;;;;;3.78;2.05;;;;;;;;;;5077718;28;20048;-61
2021/09/18 00:31:32;;;;;;;4.53;2.47;;;;;;;;;;5073995;28;20569;-61
2021/09/18 00:34:18;;;;;;;2.70;2.08;;;;;;;;;;5074285;28;20052;-61
2021/09/18 00:37:03;;;;;;;2.88;2.10;;;;;;;;;;5074205;28;20053;-62
2021/09/18 00:39:49;;;;;;;3.60;2.25;;;;;;;;;;5073873;28;20052;-61
2021/09/18 00:42:34;;;;;;;2.78;2.25;;;;;;;;;;5074961;28;20057;-61
2021/09/18 00:45:19;;;;;;;5.43;2.00;;;;;;;;;;5075260;28;20053;-61
2021/09/18 00:48:05;;;;;;;4.15;1.85;;;;;;;;;;5073830;28;20053;-61
2021/09/18 00:50:50;;;;;;;3.00;2.20;;;;;;;;;;5074467;28;20053;-61
2021/09/18 00:53:35;;;;;;;2.88;2.05;;;;;;;;;;5093466;28;20048;-61
2021/09/18 00:56:21;;;;;;;4.22;2.20;;;;;;;;;;5089675;28;20127;-61
2021/09/18 00:59:06;;;;;;;3.92;2.20;;;;;;;;;;5080619;28;20052;-61
2021/09/18 01:01:51;;;;;;;2.83;2.33;;;;;;;;;;5076168;28;20052;-61
2021/09/18 01:04:37;;;;;;;2.90;2.13;;;;;;;;;;5073295;28;20060;-61
2021/09/18 01:07:23;;;;;;;4.25;2.22;;;;;;;;;;5073674;28;20123;-61
2021/09/18 01:10:08;;;;;;;3.35;2.58;;;;;;;;;;5073421;28;20052;-61
2021/09/18 01:12:59;;;;;;;3.13;2.03;;;;;;;;;;5085723;28;20040;-62
2021/09/18 01:15:45;;;;;;;3.60;1.90;;;;;;;;;;5092685;28;20048;-61
2021/09/18 01:18:30;;;;;;;3.22;2.10;;;;;;;;;;5077313;28;20418;-61
2021/09/18 01:21:15;;;;;;;3.13;2.47;;;;;;;;;;5073694;28;20091;-61
2021/09/18 01:24:00;;;;;;;4.70;2.40;;;;;;;;;;5090244;28;20514;-61
2021/09/18 01:26:46;;;;;;;3.08;2.05;;;;;;;;;;5093349;28;20417;-62
2021/09/18 01:29:32;;;;;;;4.50;2.20;;;;;;;;;;5072937;28;20067;-62
2021/09/18 01:32:19;;;;;;;2.83;2.20;;;;;;;;;;5074244;28;20511;-62
2021/09/18 01:35:04;;;;;;;5.90;2.38;;;;;;;;;;5093354;28;20056;-61
2021/09/18 01:37:49;;;;;;;2.78;2.42;;;;;;;;;;5088827;28;20444;-61
2021/09/18 01:40:36;;;;;;;3.75;2.67;;;;;;;;;;5072934;28;20044;-62
2021/09/18 01:43:21;;;;;;;3.28;2.30;;;;;;;;;;5073318;28;20049;-62
2021/09/18 01:46:06;;;;;;;4.95;3.13;;;;;;;;;;5072877;28;20053;-61
2021/09/18 01:48:52;;;;;;;6.10;3.08;;;;;;;;;;5072497;28;20045;-61
2021/09/18 01:51:40;;;;;;;5.30;3.05;;;;;;;;;;5072710;28;20056;-61
2021/09/18 01:54:28;;;;;;;7.28;3.28;;;;;;;;;;5087954;28;20052;-61
2021/09/18 01:57:13;;;;;;;3.67;3.33;;;;;;;;;;5092563;28;20055;-61
2021/09/18 02:00:02;;;;;;;5.57;3.90;;;;;;;;;;5076551;28;20124;-61
2021/09/18 02:02:49;;;;;;;5.07;3.75;;;;;;;;;;5073452;28;20048;-60
2021/09/18 02:05:34;;;;;;;6.80;4.03;;;;;;;;;;5074452;28;20119;-62
2021/09/18 02:08:21;;;;;;;6.45;3.40;;;;;;;;;;5072605;28;20079;-61
2021/09/18 02:11:07;;;;;;;6.40;3.80;;;;;;;;;;5072318;28;20124;-61
2021/09/18 02:13:52;;;;;;;5.07;3.72;;;;;;;;;;5077169;28;20509;-62
2021/09/18 02:16:37;;;;;;;5.90;3.95;;;;;;;;;;5092250;28;20052;-61
2021/09/18 02:19:22;;;;;;;6.30;3.47;;;;;;;;;;5087108;28;20052;-62
2021/09/18 02:22:08;;;;;;;7.57;3.90;;;;;;;;;;5072059;28;20049;-61
2021/09/18 02:24:53;;;;;;;4.80;3.53;;;;;;;;;;5072305;28;20116;-61
2021/09/18 02:27:39;;;;;;;6.95;3.20;;;;;;;;;;5071377;28;20049;-61
2021/09/18 02:30:25;;;;;;;3.78;3.38;;;;;;;;;;5086446;28;20048;-61
2021/09/18 02:33:10;;;;;;;4.05;3.15;;;;;;;;;;5091510;28;20043;-61
2021/09/18 02:35:55;;;;;;;4.30;2.90;;;;;;;;;;5091144;28;20331;-62
2021/09/18 02:38:40;;;;;;;4.45;3.67;;;;;;;;;;5092041;28;20123;-61
2021/09/18 02:41:25;;;;;;;5.45;3.40;;;;;;;;;;5091505;28;20095;-61
2021/09/18 02:44:11;;;;;;;6.68;3.05;;;;;;;;;;5091960;28;20052;-61
2021/09/18 02:46:56;;;;;;;4.18;2.72;;;;;;;;;;5071918;28;20049;-61
2021/09/18 02:49:41;;;;;;;3.75;2.78;;;;;;;;;;5072025;28;20127;-60
2021/09/18 02:52:27;;;;;;;5.63;3.25;;;;;;;;;;5071773;28;20057;-62
2021/09/18 02:55:12;;;;;;;5.72;3.03;;;;;;;;;;5089398;28;20056;-61
2021/09/18 02:57:57;;;;;;;6.60;3.78;;;;;;;;;;5091881;28;20056;-61
2021/09/18 03:00:43;;;;;;;5.80;2.95;;;;;;;;;;5087434;28;20083;-62
2021/09/18 03:03:28;;;;;;;4.75;2.90;;;;;;;;;;5071456;28;20473;-61
2021/09/18 03:06:14;;;;;;;4.30;2.88;;;;;;;;;;5071893;28;20045;-61
2021/09/18 03:08:59;;;;;;;6.22;2.80;;;;;;;;;;5071786;28;20052;-61
2021/09/18 03:11:44;;;;;;;8.35;4.03;;;;;;;;;;5061064;28;20048;-61
2021/09/18 03:14:29;;;;;;;4.40;3.40;;;;;;;;;;5071249;28;20056;-61
2021/09/18 03:17:14;;;;;;;5.90;3.53;;;;;;;;;;5071734;28;20064;-61
2021/09/18 03:20:00;;;;;;;5.28;3.85;;;;;;;;;;5071627;28;20060;-63
2021/09/18 03:22:45;;;;;;;5.97;3.80;;;;;;;;;;5074642;28;20502;-63
2021/09/18 03:25:30;;;;;;;3.58;3.25;;;;;;;;;;5072530;28;20124;-63
2021/09/18 03:28:16;;;;;;;5.28;3.17;;;;;;;;;;5071533;28;20073;-63
2021/09/18 03:31:01;;;;;;;5.25;3.25;;;;;;;;;;5071721;28;20094;-63
2021/09/18 03:33:46;;;;;;;6.97;3.60;;;;;;;;;;5071034;28;20517;-63
2021/09/18 03:36:32;;;;;;;4.95;3.58;;;;;;;;;;5071457;28;20057;-63
2021/09/18 03:39:17;;;;;;;8.52;3.72;;;;;;;;;;5084377;28;20058;-63
2021/09/18 03:42:02;;;;;;;6.03;3.45;;;;;;;;;;5077836;28;20052;-63
2021/09/18 03:44:48;;;;;;;5.70;3.92;;;;;;;;;;5075720;28;20071;-63
2021/09/18 03:47:34;;;;;;;6.03;3.35;;;;;;;;;;5095086;28;20127;-63
2021/09/18 03:50:19;;;;;;;4.25;3.70;;;;;;;;;;5095194;28;20048;-63
2021/09/18 03:53:04;;;;;;;7.07;3.70;;;;;;;;;;5134280;22;20122;-64
2021/09/18 03:55:50;;;;;;;6.85;3.35;;;;;;;;;;5074243;28;20048;-64
2021/09/18 03:58:35;;;;;;;4.32;3.88;;;;;;;;;;5095062;28;20089;-64
2021/09/18 04:01:20;;;;;;;7.40;3.67;;;;;;;;;;5094915;28;20052;-64
2021/09/18 04:04:05;;;;;;;7.15;3.63;;;;;;;;;;5085465;28;20060;-64
2021/09/18 04:06:52;;;;;;;6.03;4.10;;;;;;;;;;5062937;28;20116;-64
2021/09/18 04:09:37;;;;;;;5.18;3.88;;;;;;;;;;5054555;28;20081;-64
2021/09/18 04:12:22;;;;;;;6.15;3.63;;;;;;;;;;5054758;28;20510;-64
2021/09/18 04:15:08;;;;;;;8.20;3.72;;;;;;;;;;5065578;28;20411;-65
2021/09/18 04:17:53;;;;;;;6.57;4.47;;;;;;;;;;5070357;28;20127;-65
2021/09/18 04:20:38;;;;;;;7.63;4.75;;;;;;;;;;5074272;28;20052;-64
2021/09/18 04:23:24;;;;;;;7.13;4.65;;;;;;;;;;5074306;28;20052;-63
2021/09/18 04:26:09;;;;;;;9.38;4.57;;;;;;;;;;5093930;28;20078;-64
2021/09/18 04:28:54;;;;;;;6.32;4.72;;;;;;;;;;5074150;28;20060;-64
2021/09/18 04:31:41;;;;;;;8.60;4.75;;;;;;;;;;5074229;28;20052;-64
2021/09/18 04:34:27;;;;;;;9.07;4.55;;;;;;;;;;5079692;28;20185;-64
2021/09/18 04:37:12;;;;;;;7.32;4.05;;;;;;;;;;5089040;28;20490;-64
2021/09/18 04:39:57;;;;;;;6.80;5.25;;;;;;;;;;5073881;28;20052;-64
2021/09/18 04:42:43;;;;;;;8.18;5.13;;;;;;;;;;5073759;28;20048;-64
2021/09/18 04:45:28;;;;;;;6.22;4.97;;;;;;;;;;5081323;28;20418;-64
2021/09/18 04:48:13;;;;;;;10.52;5.18;;;;;;;;;;5082923;28;20498;-64
2021/09/18 04:50:58;;;;;;;7.63;5.68;;;;;;;;;;5052892;28;20052;-64
2021/09/18 04:53:44;;;;;;;9.35;5.57;;;;;;;;;;5053235;28;20049;-64
2021/09/18 04:56:29;;;;;;;6.95;5.20;;;;;;;;;;5067018;28;20052;-64
2021/09/18 04:59:14;;;;;;;8.48;5.75;;;;;;;;;;5073358;28;20040;-64
2021/09/18 05:02:00;;;;;;;9.07;6.43;;;;;;;;;;5073528;28;20052;-64
2021/09/18 05:04:45;;;;;;;9.13;5.70;;;;;;;;;;5055262;28;20056;-64
2021/09/18 05:07:30;;;;;;;11.02;6.95;;;;;;;;;;5092401;28;20123;-64
2021/09/18 05:10:15;;;;;;;11.18;7.10;;;;;;;;;;5073370;28;20056;-64
2021/09/18 05:13:02;;;;;;;11.73;6.40;;;;;;;;;;5073068;28;20052;-64
2021/09/18 05:15:47;;;;;;;10.57;6.88;;;;;;;;;;5073270;28;20119;-64
2021/09/18 05:18:33;;;;;;;12.27;6.60;;;;;;;;;;5069058;28;20049;-64
2021/09/18 05:21:18;;;;;;;6.78;5.70;;;;;;;;;;5092915;28;20048;-64
2021/09/18 05:24:03;;;;;;;10.07;5.50;;;;;;;;;;5093094;28;20056;-65
2021/09/18 05:26:49;;;;;;;8.40;5.72;;;;;;;;;;5086294;28;20415;-65
2021/09/18 05:29:34;;;;;;;12.05;5.50;;;;;;;;;;5072384;28;20049;-65
2021/09/18 05:32:20;;;;;;;7.50;5.50;;;;;;;;;;5052779;28;20418;-65
2021/09/18 05:35:05;;;;;;;7.82;5.45;;;;;;;;;;5052597;28;20048;-65
2021/09/18 05:37:51;;;;;;;7.95;5.57;;;;;;;;;;5077952;28;20048;-65
2021/09/18 05:40:36;;;;;;;8.63;6.10;;;;;;;;;;5077540;28;20505;-65
2021/09/18 05:43:21;;;;;;;9.07;5.93;;;;;;;;;;5072462;28;20143;-64
2021/09/18 05:46:07;;;;;;;9.30;6.40;;;;;;;;;;5072602;28;20052;-64
2021/09/18 05:48:52;;;;;;;9.00;5.65;;;;;;;;;;5072759;28;20056;-64
2021/09/18 05:51:38;;;;;;;7.45;5.57;;;;;;;;;;5072453;28;20052;-64
2021/09/18 05:54:23;;;;;;;7.60;5.28;;;;;;;;;;5081091;28;20055;-64
2021/09/18 05:57:08;;;;;;;7.40;5.40;;;;;;;;;;5092626;28;20059;-64
2021/09/18 05:59:54;;;;;;;8.18;5.28;;;;;;;;;;5075846;28;20421;-64
2021/09/18 06:02:41;;;;;;;7.43;5.35;;;;;;;;;;5072090;28;20048;-64
2021/09/18 06:05:27;;;;;;;6.32;5.32;;;;;;;;;;5086914;28;20414;-64
2021/09/18 06:08:12;;;;;;;8.45;5.00;;;;;;;;;;5092715;28;20123;-64
2021/09/18 06:10:57;;;;;;;6.57;5.40;;;;;;;;;;5082910;28;20076;-64
2021/09/18 06:13:43;;;;;;;6.35;5.53;;;;;;;;;;5071808;28;20889;-64
2021/09/18 06:16:29;;;;;;;9.02;6.03;;;;;;;;;;5052208;28;20056;-64
2021/09/18 06:19:18;;;;;;;7.30;5.72;;;;;;;;;;5072499;28;20044;-64
2021/09/18 06:22:04;;;;;;;10.15;6.22;;;;;;;;;;5077074;28;20052;-64
2021/09/18 06:24:49;;;;;;;6.32;5.40;;;;;;;;;;5071732;28;20052;-64
2021/09/18 06:27:34;;;;;;;8.98;6.18;;;;;;;;;;5072044;28;20437;-64
2021/09/18 06:30:19;;;;;;;8.13;6.03;;;;;;;;;;5072046;28;20132;-64
2021/09/18 06:33:05;;;;;;;8.00;5.70;;;;;;;;;;5074087;28;20057;-64
2021/09/18 06:35:50;;;;;;;8.73;6.03;;;;;;;;;;5079177;28;20048;-64
2021/09/18 06:38:36;;;;;;;7.03;5.57;;;;;;;;;;5056654;28;20470;-64
2021/09/18 06:41:21;;;;;;;6.57;5.22;;;;;;;;;;5071917;28;20127;-64
2021/09/18 06:44:06;;;;;;;5.82;5.22;;;;;;;;;;5071198;28;20422;-65
2021/09/18 06:46:51;;;;;;;7.53;5.03;;;;;;;;;;5071961;28;20498;-64
2021/09/18 06:49:37;;;;;;;7.85;6.05;;;;;;;;;;5071909;28;20084;-64
2021/09/18 06:52:22;;;;;;;8.52;6.93;;;;;;;;;;5071435;28;20175;-64
2021/09/18 06:55:07;;;;;;;7.40;6.13;;;;;;;;;;5051200;28;20052;-64
2021/09/18 06:57:54;;;;;;;6.60;5.80;;;;;;;;;;5084177;28;20052;-65
2021/09/18 07:00:39;;;;;;;8.98;6.38;;;;;;;;;;5091947;28;20056;-64
2021/09/18 07:03:25;;;;;;;13.38;6.55;;;;;;;;;;5059953;28;20048;-64
2021/09/18 07:06:10;;;;;;;7.65;5.43;;;;;;;;;;5071869;28;20048;-64
2021/09/18 07:08:55;;;;;;;5.45;4.93;;;;;;;;;;5071730;28;20449;-64
2021/09/18 07:11:41;;;;;;;9.77;5.25;;;;;;;;;;5071607;28;20056;-64
2021/09/18 07:14:26;;;;;;;20.00;5.68;;;;;;;;;;5062662;28;20052;-64
2021/09/18 07:17:11;;;;;;;5.93;4.20;;;;;;;;;;5070440;28;20056;-64
2021/09/18 07:19:58;;;;;;;5.40;3.95;;;;;;;;;;5075286;28;20052;-64
2021/09/18 07:22:43;;;;;;;4.63;4.22;;;;;;;;;;5075598;28;20391;-64
2021/09/18 07:25:28;;;;;;;7.15;3.95;;;;;;;;;;5075064;28;20049;-64
2021/09/18 07:28:13;;;;;;;6.28;3.83;;;;;;;;;;5075091;28;20132;-64
2021/09/18 07:30:59;;;;;;;5.13;3.50;;;;;;;;;;5075002;28;20048;-64
2021/09/18 07:33:44;;;;;;;7.28;2.40;;;;;;;;;;5076224;28;20502;-65
2021/09/18 07:36:29;;;;;;;6.03;2.90;;;;;;;;;;5074787;28;20048;-65
2021/09/18 07:39:15;;;;;;;3.70;1.73;;;;;;;;;;5075018;28;20769;-64
2021/09/18 07:42:00;;;;;;;2.05;1.58;;;;;;;;;;5074768;28;20052;-64
2021/09/18 07:44:45;;;;;;;5.90;2.15;;;;;;;;;;5086691;28;20048;-65
2021/09/18 07:47:31;;;;;;;4.03;2.15;;;;;;;;;;5078728;28;20087;-64
2021/09/18 07:50:16;;;;;;;3.58;1.83;;;;;;;;;;5074583;28;20510;-65
2021/09/18 07:53:01;;;;;;;2.70;1.65;;;;;;;;;;5074592;28;20056;-64
2021/09/18 07:55:47;;;;;;;4.45;1.77;;;;;;;;;;5074411;28;20127;-64
2021/09/18 07:58:32;;;;;;;2.08;1.65;;;;;;;;;;5074559;28;20048;-64
2021/09/18 08:01:19;;;;;;;3.67;1.35;;;;;;;;;;5074660;28;20049;-65
2021/09/18 08:04:04;;;;;;;3.17;0.88;;;;;;;;;;5074170;28;20048;-64
2021/09/18 08:06:50;;;;;;;1.90;0.77;;;;;;;;;;5072869;28;20048;-64
2021/09/18 08:09:35;;;;;;;4.93;1.10;;;;;;;;;;5064765;28;20123;-64
2021/09/18 08:12:21;;;;;;;3.35;0.80;;;;;;;;;;5074314;28;20457;-65
2021/09/18 08:15:07;;;;;;;1.25;0.60;;;;;;;;;;5074066;28;20052;-65
2021/09/18 08:17:52;;;;;;;3.53;1.05;;;;;;;;;;5073921;28;20048;-64
2021/09/18 08:20:38;;;;;;;2.45;1.35;;;;;;;;;;5073667;28;20119;-64
2021/09/18 08:23:23;;;;;;;4.05;1.05;;;;;;;;;;5074152;28;20048;-64
2021/09/18 08:26:09;;;;;;;1.55;0.90;;;;;;;;;;5072626;28;20071;-64
2021/09/18 08:28:54;;;;;;;4.00;1.10;;;;;;;;;;5073767;28;20044;-64
2021/09/18 08:31:40;;;;;;;2.00;1.00;;;;;;;;;;5073367;28;20048;-66
2021/09/18 08:34:25;;;;;;;1.85;0.90;;;;;;;;;;5076706;28;20049;-65
2021/09/18 08:37:10;;;;;;;1.42;0.90;;;;;;;;;;5070571;28;20119;-66
2021/09/18 08:39:56;;;;;;;1.40;0.73;;;;;;;;;;5074147;28;20045;-65
2021/09/18 08:42:41;;;;;;;2.50;1.10;;;;;;;;;;5060650;28;20120;-65
2021/09/18 08:45:26;;;;;;;3.75;1.10;;;;;;;;;;5080685;28;20053;-65
2021/09/18 08:48:12;;;;;;;2.05;1.00;;;;;;;;;;5064829;28;20115;-64
2021/09/18 08:50:57;;;;;;;3.17;1.20;;;;;;;;;;5058388;28;20522;-65
2021/09/18 08:53:42;;;;;;;3.90;0.88;;;;;;;;;;5072056;28;20048;-64
2021/09/18 08:56:28;;;;;;;4.82;1.05;;;;;;;;;;5073731;28;20052;-64
2021/09/18 08:59:13;;;;;;;1.35;0.70;;;;;;;;;;5073785;28;20045;-65
2021/09/18 09:02:11;;;;;;;2.05;0.82;;;;;;;;;;5073051;28;20056;-65
2021/09/18 09:05:06;;;;;;;1.98;0.95;;;;;;;;;;5073224;28;20056;-65
2021/09/18 09:08:07;;;;;;;3.13;1.23;;;;;;;;;;5073253;28;20511;-65
2021/09/18 09:10:53;;;;;;;3.15;0.95;;;;;;;;;;5073273;28;20052;-65
2021/09/18 09:13:38;;;;;;;3.30;1.25;;;;;;;;;;5072619;28;20052;-65
2021/09/18 09:16:23;;;;;;;3.92;1.00;;;;;;;;;;5058008;28;20052;-65
2021/09/18 09:19:15;;;;;;;1.15;0.60;;;;;;;;;;5058143;28;20083;-65
2021/09/18 09:22:00;;;;;;;1.65;0.60;;;;;;;;;;5092962;28;20110;-65
2021/09/18 09:24:49;;;;;;;2.38;0.60;;;;;;;;;;5092980;28;20048;-65
2021/09/18 09:27:34;;;;;;;2.80;0.57;;;;;;;;;;5059508;28;20120;-65
2021/09/18 09:30:28;;;;;;;1.77;0.90;;;;;;;;;;5073995;28;20513;-65
2021/09/18 09:33:14;;;;;;;1.13;0.60;;;;;;;;;;5070144;28;20056;-64
2021/09/18 09:35:59;;;;;;;2.70;0.73;;;;;;;;;;5072787;28;20056;-65
2021/09/18 09:38:51;;;;;;;2.45;0.82;;;;;;;;;;5057691;28;20056;-65
2021/09/18 09:41:56;;;;;;;3.55;0.80;;;;;;;;;;5082883;28;20055;-66
2021/09/18 09:44:41;;;;;;;1.92;0.75;;;;;;;;;;5091006;28;20441;-65
2021/09/18 09:47:27;;;;;;;4.35;0.80;;;;;;;;;;5082130;28;20056;-65
2021/09/18 09:50:12;;;;;;;3.13;0.68;;;;;;;;;;5072485;28;20458;-66
2021/09/18 09:52:58;;;;;;;2.90;0.63;;;;;;;;;;5072482;28;20064;-66
2021/09/18 09:55:43;;;;;;;2.50;0.50;;;;;;;;;;5068255;22;20071;-62
2021/09/18 09:58:28;;;;;;;3.05;0.60;;;;;;;;;;5051744;28;20049;-61
2021/09/18 10:01:13;;;;;;;1.83;0.52;;;;;;;;;;5051609;28;20049;-61
2021/09/18 10:03:58;;;;;;;1.33;0.57;;;;;;;;;;5051443;28;20049;-61
2021/09/18 10:06:44;;;;;;;3.63;0.55;;;;;;;;;;5044892;28;20042;-62
2021/09/18 10:09:29;;;;;;;1.75;0.73;;;;;;;;;;5032581;28;20050;-61
2021/09/18 10:12:14;;;;;;;1.92;0.70;;;;;;;;;;5032325;28;20535;-61
2021/09/18 10:15:00;;;;;;;4.40;1.00;;;;;;;;;;5032608;28;20053;-62
2021/09/18 10:17:47;;;;;;;3.40;1.17;;;;;;;;;;5045377;28;20053;-62
2021/09/18 10:23:35;;;;;;;3.50;1.25;;;;;;;;;;5051515;28;20514;-62
2021/09/18 10:26:21;;;;;;;2.47;1.55;;;;;;;;;;5051510;28;20052;-62
2021/09/18 10:29:06;;;;;;;2.47;2.28;;;;;;;;;;5050717;28;20053;-62
2021/09/18 10:32:02;;;;;;;4.25;2.60;;;;;;;;;;5051640;28;20048;-62
2021/09/18 10:34:47;;;;;;;3.03;2.30;;;;;;;;;;5051646;28;20511;-62
2021/09/18 10:37:34;;;;;;;3.65;2.50;;;;;;;;;;5018396;28;20507;-62
2021/09/18 10:40:20;;;;;;;2.92;2.65;;;;;;;;;;5051800;28;20052;-61
2021/09/18 10:43:05;;;;;;;4.80;3.70;;;;;;;;;;5051751;28;20491;-62
2021/09/18 10:45:51;;;;;;;6.57;3.92;;;;;;;;;;5051721;28;20045;-62
2021/09/18 10:48:36;;;;;;;11.63;3.63;;;;;;;;;;5051224;28;20041;-62
2021/09/18 10:51:34;;;;;;;5.50;2.88;;;;;;;;;;5056091;28;20048;-61
2021/09/18 10:54:19;;;;;;;6.55;3.63;;;;;;;;;;5054800;28;20049;-62
2021/09/18 10:57:06;;;;;;;6.15;5.35;;;;;;;;;;5055742;28;20473;-62
2021/09/18 10:59:51;;;;;;;11.13;6.78;;;;;;;;;;5055306;28;20057;-62
2021/09/18 11:02:36;;;;;;;9.25;7.30;;;;;;;;;;5055743;28;20085;-62
2021/09/18 11:05:21;;;;;;;10.68;8.20;;;;;;;;;;5042940;28;20053;-62
2021/09/18 11:08:15;;;;;;;10.90;7.80;;;;;;;;;;5035892;28;20049;-62
2021/09/18 11:11:01;;;;;;;9.98;8.13;;;;;;;;;;5035932;28;20053;-62
2021/09/18 11:13:46;;;;;;;9.63;7.78;;;;;;;;;;5035563;28;20061;-62
2021/09/18 11:16:35;;;;;;;9.50;7.53;;;;;;;;;;5035568;28;20058;-62
2021/09/18 11:19:21;;;;;;;9.25;7.53;;;;;;;;;;5035738;28;20124;-62
2021/09/18 11:22:11;;;;;;;8.93;7.20;;;;;;;;;;5034689;28;20054;-62
2021/09/18 11:25:17;;;;;;;12.07;8.00;;;;;;;;;;5035261;28;20053;-62
2021/09/18 11:28:06;;;;;;;8.85;7.30;;;;;;;;;;5035387;28;20120;-62
2021/09/18 11:30:53;;;;;;;9.27;7.22;;;;;;;;;;5035677;28;20049;-62
2021/09/18 11:33:38;;;;;;;8.95;7.07;;;;;;;;;;5035042;28;20053;-62
2021/09/18 11:36:23;;;;;;;8.35;7.00;;;;;;;;;;5045982;28;20495;-62
2021/09/18 11:39:08;;;;;;;8.77;6.72;;;;;;;;;;5037899;28;20076;-62
2021/09/18 11:41:53;;;;;;;8.50;7.05;;;;;;;;;;5034429;28;20515;-62
2021/09/18 11:44:39;;;;;;;8.35;7.25;;;;;;;;;;5034734;28;20049;-62
2021/09/18 11:47:29;;;;;;;7.53;6.50;;;;;;;;;;5048721;28;20087;-62
2021/09/18 11:50:17;;;;;;;8.07;6.93;;;;;;;;;;5017577;28;20054;-61
2021/09/18 11:53:12;;;;;;;8.40;6.47;;;;;;;;;;5034861;28;20367;-61
2021/09/18 11:55:58;;;;;;;8.77;6.72;;;;;;;;;;5034693;28;20132;-63
2021/09/18 11:58:43;;;;;;;7.35;6.50;;;;;;;;;;5035046;28;20049;-62
2021/09/18 12:01:29;;;;;;;7.90;7.10;;;;;;;;;;5034565;28;20058;-62
2021/09/18 12:04:15;;;;;;;9.68;6.88;;;;;;;;;;5034251;28;20515;-62
2021/09/18 12:07:03;;;;;;;6.95;6.05;;;;;;;;;;5034829;28;20470;-62
2021/09/18 12:09:48;;;;;;;7.13;5.72;;;;;;;;;;5047109;28;20574;-62
2021/09/18 12:12:33;;;;;;;6.43;5.15;;;;;;;;;;5053201;28;20155;-62
2021/09/18 12:15:28;;;;;;;7.53;6.85;;;;;;;;;;5053198;28;20060;-62
2021/09/18 12:18:26;;;;;;;10.88;4.82;;;;;;;;;;5054282;28;20523;-62
2021/09/18 12:21:33;;;;;;;5.88;4.95;;;;;;;;;;5034412;28;20045;-62
2021/09/18 12:24:19;;;;;;;6.15;5.25;;;;;;;;;;5014098;28;20057;-62
2021/09/18 12:27:22;;;;;;;6.13;4.40;;;;;;;;;;5013402;28;20539;-62
2021/09/18 12:30:08;;;;;;;5.40;4.10;;;;;;;;;;5024971;28;20049;-62
2021/09/18 12:33:03;;;;;;;6.45;3.80;;;;;;;;;;5034343;28;20046;-62
2021/09/18 12:35:49;;;;;;;5.60;3.40;;;;;;;;;;5034006;28;20061;-62
2021/09/18 12:38:34;;;;;;;5.65;3.30;;;;;;;;;;5034086;28;20053;-62
2021/09/18 12:41:23;;;;;;;3.75;2.88;;;;;;;;;;5034397;28;20053;-62
2021/09/18 12:44:11;;;;;;;5.38;3.42;;;;;;;;;;5033747;28;20116;-62
2021/09/18 12:46:56;;;;;;;3.50;2.38;;;;;;;;;;5033886;28;20503;-62
2021/09/18 12:49:42;;;;;;;4.13;3.20;;;;;;;;;;5034024;28;20050;-62
2021/09/18 12:52:31;;;;;;;4.50;2.38;;;;;;;;;;5025419;28;20041;-62
2021/09/18 12:55:16;;;;;;;4.18;2.40;;;;;;;;;;5053342;28;20654;-63
2021/09/18 12:58:01;;;;;;;2.90;2.53;;;;;;;;;;5053813;28;20127;-63
2021/09/18 13:00:59;;;;;;;3.13;2.08;;;;;;;;;;5047997;28;20120;-62
2021/09/18 13:03:44;;;;;;;4.30;1.95;;;;;;;;;;5033688;28;20054;-61
2021/09/18 13:06:30;;;;;;;2.47;1.80;;;;;;;;;;5033702;28;20057;-62
2021/09/18 13:09:15;;;;;;;2.45;1.70;;;;;;;;;;5033547;28;20053;-62
2021/09/18 13:12:11;;;;;;;3.08;1.70;;;;;;;;;;5045412;28;20045;-62
2021/09/18 13:14:57;;;;;;;4.25;1.83;;;;;;;;;;5013655;28;20413;-62
2021/09/18 13:17:48;;;;;;;3.20;1.63;;;;;;;;;;5013536;28;20058;-62
2021/09/18 13:20:34;;;;;;;2.92;1.60;;;;;;;;;;5012523;28;20057;-62
2021/09/18 13:23:19;;;;;;;2.85;1.67;;;;;;;;;;5022340;28;20566;-62
2021/09/18 13:26:04;;;;;;;3.20;1.80;;;;;;;;;;5053205;28;20045;-62
2021/09/18 13:28:50;;;;;;;2.00;1.55;;;;;;;;;;5052939;28;20053;-62
2021/09/18 13:31:35;;;;;;;2.28;1.08;;;;;;;;;;5051133;28;20048;-63
2021/09/18 13:34:21;;;;;;;2.83;1.73;;;;;;;;;;5034522;28;20054;-61
2021/09/18 13:37:06;;;;;;;3.00;1.70;;;;;;;;;;5052827;28;20422;-62
2021/09/18 13:39:51;;;;;;;2.95;1.50;;;;;;;;;;5052815;28;20526;-62
2021/09/18 13:42:37;;;;;;;2.22;0.90;;;;;;;;;;5044023;28;20400;-62
2021/09/18 13:45:23;;;;;;;2.85;1.25;;;;;;;;;;5031740;28;20053;-62
2021/09/18 13:48:09;;;;;;;3.45;1.10;;;;;;;;;;5032977;28;20107;-62
2021/09/18 13:50:54;;;;;;;2.05;0.63;;;;;;;;;;5032836;28;20057;-62
2021/09/18 13:53:39;;;;;;;1.40;0.75;;;;;;;;;;5032800;28;20057;-62
2021/09/18 13:56:25;;;;;;;2.15;0.60;;;;;;;;;;5032750;28;20041;-62
2021/09/18 13:59:10;;;;;;;0.88;0.63;;;;;;;;;;5032743;28;20049;-62
2021/09/18 14:01:55;;;;;;;1.23;0.70;;;;;;;;;;5032701;28;20049;-62
2021/09/18 14:04:41;;;;;;;1.55;0.82;;;;;;;;;;5032407;28;20120;-62
2021/09/18 14:07:26;;;;;;;2.17;0.80;;;;;;;;;;5032520;28;20155;-62
2021/09/18 14:10:11;;;;;;;1.00;0.65;;;;;;;;;;5032435;28;20049;-62
2021/09/18 14:12:56;;;;;;;2.50;0.85;;;;;;;;;;5032470;28;21149;-62
2021/09/18 14:15:42;;;;;;;1.73;0.90;;;;;;;;;;5032504;28;20527;-61
2021/09/18 14:18:27;;;;;;;1.48;0.60;;;;;;;;;;5032570;28;20054;-62
2021/09/18 14:21:12;;;;;;;2.85;0.77;;;;;;;;;;5032072;28;20571;-62
2021/09/18 14:23:58;;;;;;;1.98;0.88;;;;;;;;;;5032331;28;20073;-62
2021/09/18 14:26:43;;;;;;;1.10;0.80;;;;;;;;;;5032606;28;20049;-62
2021/09/18 14:29:29;;;;;;;1.95;0.80;;;;;;;;;;5032176;28;20045;-62
2021/09/18 14:32:14;;;;;;;1.15;0.77;;;;;;;;;;5039539;28;20123;-62
2021/09/18 14:34:59;;;;;;;2.60;0.77;;;;;;;;;;5050472;28;20069;-62
2021/09/18 14:37:45;;;;;;;1.25;0.70;;;;;;;;;;5032101;28;20057;-62
2021/09/18 14:40:30;;;;;;;2.65;0.90;;;;;;;;;;5032209;28;20462;-62
2021/09/18 14:43:15;;;;;;;1.40;1.02;;;;;;;;;;5043922;28;20065;-62
2021/09/18 14:46:00;;;;;;;1.75;0.60;;;;;;;;;;5051711;28;20049;-62
2021/09/18 14:48:46;;;;;;;1.67;0.80;;;;;;;;;;5051774;28;20503;-62
2021/09/18 14:51:32;;;;;;;1.10;0.70;;;;;;;;;;5051227;28;20049;-62
2021/09/18 14:54:17;;;;;;;0.82;0.55;;;;;;;;;;5034195;28;20140;-62
2021/09/18 14:57:02;;;;;;;2.35;0.60;;;;;;;;;;5046951;28;20056;-62
2021/09/18 14:59:47;;;;;;;1.25;0.60;;;;;;;;;;5051826;28;20053;-62
2021/09/18 15:02:33;;;;;;;1.00;0.60;;;;;;;;;;5033614;28;20053;-62
2021/09/18 15:05:18;;;;;;;2.10;0.70;;;;;;;;;;5031919;28;20053;-63
2021/09/18 15:08:03;;;;;;;0.85;0.68;;;;;;;;;;5032548;28;20128;-63
2021/09/18 15:10:48;;;;;;;1.42;0.63;;;;;;;;;;5032207;28;20050;-62
2021/09/18 15:13:34;;;;;;;1.90;0.68;;;;;;;;;;5017914;28;20057;-63
2021/09/18 15:16:19;;;;;;;0.85;0.55;;;;;;;;;;5031789;28;20111;-62
2021/09/18 15:19:04;;;;;;;2.88;0.70;;;;;;;;;;5031723;28;20128;-62
2021/09/18 15:21:50;;;;;;;0.63;0.32;;;;;;;;;;5032081;28;20085;-62
2021/09/18 15:24:35;;;;;;;1.08;0.45;;;;;;;;;;5031525;28;20050;-62
2021/09/18 15:27:21;;;;;;;2.60;0.63;;;;;;;;;;5031619;28;20057;-62
2021/09/18 15:30:08;;;;;;;2.15;0.32;;;;;;;;;;5032322;28;20510;-63
2021/09/18 15:32:53;;;;;;;2.83;0.40;;;;;;;;;;5031763;28;20053;-63
2021/09/18 15:35:39;;;;;;;0.63;0.40;;;;;;;;;;5034586;28;20128;-63
2021/09/18 15:38:24;;;;;;;2.58;0.70;;;;;;;;;;5035760;28;20053;-62
2021/09/18 15:41:13;;;;;;;3.60;0.60;;;;;;;;;;5036392;28;20061;-63
2021/09/18 15:43:59;;;;;;;0.60;0.32;;;;;;;;;;5034786;28;20049;-62
2021/09/18 15:46:44;;;;;;;0.90;0.40;;;;;;;;;;5039305;28;20037;-63
2021/09/18 15:49:29;;;;;;;0.63;0.40;;;;;;;;;;5055339;28;20060;-63
2021/09/18 15:52:15;;;;;;;0.80;0.30;;;;;;;;;;5055311;28;20440;-63
2021/09/18 15:55:00;;;;;;;1.02;0.30;;;;;;;;;;5097223;22;20056;-63
2021/09/18 15:57:45;;;;;;;0.50;0.35;;;;;;;;;;5062525;28;20044;-63
2021/09/18 16:00:31;;;;;;;1.17;0.40;;;;;;;;;;5078677;28;20048;-62
2021/09/18 16:03:16;;;;;;;1.02;0.47;;;;;;;;;;5074486;28;20044;-62
2021/09/18 16:06:01;;;;;;;1.95;0.30;;;;;;;;;;5074703;28;20048;-62
2021/09/18 16:08:47;;;;;;;0.52;0.30;;;;;;;;;;5057404;28;20439;-62
2021/09/18 16:11:32;;;;;;;0.20;0.20;;;;;;;;;;5054422;28;20503;-63
2021/09/18 16:14:17;;;;;;;1.52;0.35;;;;;;;;;;5054328;28;20123;-63
2021/09/18 16:17:03;;;;;;;0.57;0.20;;;;;;;;;;5054455;28;20049;-63
2021/09/18 16:19:48;;;;;;;0.30;0.22;;;;;;;;;;5054485;28;20433;-62
2021/09/18 16:22:33;;;;;;;2.47;0.60;;;;;;;;;;5054021;28;20053;-62
2021/09/18 16:25:19;;;;;;;0.30;0.30;;;;;;;;;;5053970;28;20048;-62
2021/09/18 16:28:04;;;;;;;0.30;0.20;;;;;;;;;;5054128;28;20503;-63
2021/09/18 16:30:49;;;;;;;0.70;0.38;;;;;;;;;;5054552;28;20048;-63
2021/09/18 16:33:35;;;;;;;1.02;0.35;;;;;;;;;;5053594;28;20116;-63
2021/09/18 16:36:20;;;;;;;0.93;0.30;;;;;;;;;;5053506;28;20099;-62
2021/09/18 16:39:05;;;;;;;0.57;0.30;;;;;;;;;;5034237;28;20053;-62